sensor_id;sensor_type;location;lat;lon;timestamp;P1;durP1;ratioP1;P2;durP2;ratioP2
5416;SDS011;2731;50.754;12.990;2023-12-20T00:00:19;8.35;;;4.18;;
5416;SDS011;2731;50.754;12.990;2023-12-20T00:03:03;6.05;;;3.97;;
5416;SDS011;2731;50.754;12.990;2023-12-20T00:05:49;6.35;;;3.33;;
5416;SDS011;2731;50.754;12.990;2023-12-20T00:08:33;4.60;;;3.42;;
5416;SDS011;2731;50.754;12.990;2023-12-20T00:11:18;5.85;;;3.55;;
5416;SDS011;2731;50.754;12.990;2023-12-20T00:14:02;6.97;;;3.90;;
5416;SDS011;2731;50.754;12.990;2023-12-20T00:16:47;4.50;;;3.35;;
5416;SDS011;2731;50.754;12.990;2023-12-20T00:19:32;5.03;;;3.38;;
5416;SDS011;2731;50.754;12.990;2023-12-20T00:22:16;6.50;;;3.25;;
5416;SDS011;2731;50.754;12.990;2023-12-20T00:25:01;4.43;;;3.13;;
5416;SDS011;2731;50.754;12.990;2023-12-20T00:27:46;5.65;;;3.38;;
5416;SDS011;2731;50.754;12.990;2023-12-20T00:30:31;4.38;;;3.38;;
5416;SDS011;2731;50.754;12.990;2023-12-20T00:33:15;4.82;;;3.08;;
5416;SDS011;2731;50.754;12.990;2023-12-20T00:36:00;3.88;;;2.90;;
5416;SDS011;2731;50.754;12.990;2023-12-20T00:38:45;3.45;;;2.53;;
5416;SDS011;2731;50.754;12.990;2023-12-20T00:41:30;3.35;;;2.42;;
5416;SDS011;2731;50.754;12.990;2023-12-20T00:44:15;3.20;;;1.90;;
5416;SDS011;2731;50.754;12.990;2023-12-20T00:47:00;2.10;;;1.65;;
5416;SDS011;2731;50.754;12.990;2023-12-20T00:49:26;2.63;;;2.15;;
5416;SDS011;2731;50.754;12.990;2023-12-20T00:52:11;1.88;;;1.42;;
5416;SDS011;2731;50.754;12.990;2023-12-20T00:54:56;2.15;;;1.95;;
5416;SDS011;2731;50.754;12.990;2023-12-20T00:57:40;1.95;;;1.33;;
5416;SDS011;2731;50.754;12.990;2023-12-20T01:00:26;1.80;;;1.20;;
5416;SDS011;2731;50.754;12.990;2023-12-20T01:03:11;1.67;;;1.30;;
5416;SDS011;2731;50.754;12.990;2023-12-20T01:05:56;2.42;;;1.58;;
5416;SDS011;2731;50.754;12.990;2023-12-20T01:08:22;1.80;;;1.40;;
5416;SDS011;2731;50.754;12.990;2023-12-20T01:10:48;4.18;;;1.77;;
5416;SDS011;2731;50.754;12.990;2023-12-20T01:13:33;1.83;;;1.35;;
5416;SDS011;2731;50.754;12.990;2023-12-20T01:16:18;2.65;;;1.50;;
5416;SDS011;2731;50.754;12.990;2023-12-20T01:19:03;2.22;;;1.40;;
5416;SDS011;2731;50.754;12.990;2023-12-20T01:21:48;2.30;;;1.13;;
5416;SDS011;2731;50.754;12.990;2023-12-20T01:24:33;2.25;;;1.65;;
5416;SDS011;2731;50.754;12.990;2023-12-20T01:27:17;2.40;;;1.60;;
5416;SDS011;2731;50.754;12.990;2023-12-20T01:29:43;1.95;;;1.30;;
5416;SDS011;2731;50.754;12.990;2023-12-20T01:32:28;2.53;;;1.50;;
5416;SDS011;2731;50.754;12.990;2023-12-20T01:35:15;1.63;;;1.30;;
5416;SDS011;2731;50.754;12.990;2023-12-20T01:37:59;1.63;;;1.20;;
5416;SDS011;2731;50.754;12.990;2023-12-20T01:40:44;1.35;;;1.10;;
5416;SDS011;2731;50.754;12.990;2023-12-20T01:43:29;1.55;;;1.15;;
5416;SDS011;2731;50.754;12.990;2023-12-20T01:46:14;1.73;;;1.10;;
5416;SDS011;2731;50.754;12.990;2023-12-20T01:48:40;1.70;;;1.10;;
5416;SDS011;2731;50.754;12.990;2023-12-20T01:51:06;1.90;;;1.20;;
5416;SDS011;2731;50.754;12.990;2023-12-20T01:53:52;1.67;;;1.20;;
5416;SDS011;2731;50.754;12.990;2023-12-20T01:56:36;1.45;;;1.05;;
5416;SDS011;2731;50.754;12.990;2023-12-20T01:59:22;1.20;;;0.90;;
5416;SDS011;2731;50.754;12.990;2023-12-20T02:02:07;1.92;;;1.13;;
5416;SDS011;2731;50.754;12.990;2023-12-20T02:04:52;1.40;;;1.13;;
5416;SDS011;2731;50.754;12.990;2023-12-20T02:07:18;1.25;;;1.00;;
5416;SDS011;2731;50.754;12.990;2023-12-20T02:10:03;1.42;;;0.95;;
5416;SDS011;2731;50.754;12.990;2023-12-20T02:12:48;1.30;;;0.93;;
5416;SDS011;2731;50.754;12.990;2023-12-20T02:15:33;1.08;;;0.98;;
5416;SDS011;2731;50.754;12.990;2023-12-20T02:18:20;1.00;;;0.90;;
5416;SDS011;2731;50.754;12.990;2023-12-20T02:21:05;1.10;;;0.88;;
5416;SDS011;2731;50.754;12.990;2023-12-20T02:23:50;1.23;;;0.93;;
5416;SDS011;2731;50.754;12.990;2023-12-20T02:26:36;1.08;;;0.85;;
5416;SDS011;2731;50.754;12.990;2023-12-20T02:29:20;1.67;;;1.10;;
5416;SDS011;2731;50.754;12.990;2023-12-20T02:32:05;1.30;;;0.90;;
5416;SDS011;2731;50.754;12.990;2023-12-20T02:34:31;1.17;;;0.90;;
5416;SDS011;2731;50.754;12.990;2023-12-20T02:37:15;0.85;;;0.65;;
5416;SDS011;2731;50.754;12.990;2023-12-20T02:40:00;1.42;;;1.02;;
5416;SDS011;2731;50.754;12.990;2023-12-20T02:42:45;1.50;;;0.77;;
5416;SDS011;2731;50.754;12.990;2023-12-20T02:45:30;0.85;;;0.80;;
5416;SDS011;2731;50.754;12.990;2023-12-20T02:48:15;0.95;;;0.73;;
5416;SDS011;2731;50.754;12.990;2023-12-20T02:51:00;0.93;;;0.70;;
5416;SDS011;2731;50.754;12.990;2023-12-20T02:53:26;0.77;;;0.70;;
5416;SDS011;2731;50.754;12.990;2023-12-20T02:56:11;0.70;;;0.50;;
5416;SDS011;2731;50.754;12.990;2023-12-20T02:58:56;0.68;;;0.60;;
5416;SDS011;2731;50.754;12.990;2023-12-20T03:01:44;1.05;;;0.75;;
5416;SDS011;2731;50.754;12.990;2023-12-20T03:04:29;0.82;;;0.68;;
5416;SDS011;2731;50.754;12.990;2023-12-20T03:07:13;0.60;;;0.40;;
5416;SDS011;2731;50.754;12.990;2023-12-20T03:09:58;0.80;;;0.80;;
5416;SDS011;2731;50.754;12.990;2023-12-20T03:12:44;0.68;;;0.68;;
5416;SDS011;2731;50.754;12.990;2023-12-20T03:15:31;1.48;;;0.70;;
5416;SDS011;2731;50.754;12.990;2023-12-20T03:18:16;1.85;;;0.60;;
5416;SDS011;2731;50.754;12.990;2023-12-20T03:21:02;1.00;;;0.68;;
5416;SDS011;2731;50.754;12.990;2023-12-20T03:23:47;0.90;;;0.80;;
5416;SDS011;2731;50.754;12.990;2023-12-20T03:26:32;0.70;;;0.70;;
5416;SDS011;2731;50.754;12.990;2023-12-20T03:28:59;0.63;;;0.57;;
5416;SDS011;2731;50.754;12.990;2023-12-20T03:31:25;0.85;;;0.65;;
5416;SDS011;2731;50.754;12.990;2023-12-20T03:33:51;0.63;;;0.55;;
5416;SDS011;2731;50.754;12.990;2023-12-20T03:36:37;0.50;;;0.50;;
5416;SDS011;2731;50.754;12.990;2023-12-20T03:39:22;0.57;;;0.55;;
5416;SDS011;2731;50.754;12.990;2023-12-20T03:42:07;0.50;;;0.50;;
5416;SDS011;2731;50.754;12.990;2023-12-20T03:44:52;1.33;;;0.70;;
5416;SDS011;2731;50.754;12.990;2023-12-20T03:47:37;0.60;;;0.60;;
5416;SDS011;2731;50.754;12.990;2023-12-20T03:50:22;0.70;;;0.63;;
5416;SDS011;2731;50.754;12.990;2023-12-20T03:52:48;0.55;;;0.47;;
5416;SDS011;2731;50.754;12.990;2023-12-20T03:55:33;0.43;;;0.40;;
5416;SDS011;2731;50.754;12.990;2023-12-20T03:58:18;1.15;;;0.73;;
5416;SDS011;2731;50.754;12.990;2023-12-20T04:01:03;0.73;;;0.68;;
5416;SDS011;2731;50.754;12.990;2023-12-20T04:03:47;0.55;;;0.55;;
5416;SDS011;2731;50.754;12.990;2023-12-20T04:06:32;0.50;;;0.50;;
5416;SDS011;2731;50.754;12.990;2023-12-20T04:09:17;0.57;;;0.50;;
5416;SDS011;2731;50.754;12.990;2023-12-20T04:11:43;0.55;;;0.40;;
5416;SDS011;2731;50.754;12.990;2023-12-20T04:14:09;0.68;;;0.50;;
5416;SDS011;2731;50.754;12.990;2023-12-20T04:16:54;1.05;;;0.50;;
5416;SDS011;2731;50.754;12.990;2023-12-20T04:19:39;0.40;;;0.40;;
5416;SDS011;2731;50.754;12.990;2023-12-20T04:22:24;1.00;;;0.70;;
5416;SDS011;2731;50.754;12.990;2023-12-20T04:25:08;0.50;;;0.50;;
5416;SDS011;2731;50.754;12.990;2023-12-20T04:27:54;3.08;;;0.77;;
5416;SDS011;2731;50.754;12.990;2023-12-20T04:30:39;1.10;;;0.68;;
5416;SDS011;2731;50.754;12.990;2023-12-20T04:33:24;1.05;;;0.77;;
5416;SDS011;2731;50.754;12.990;2023-12-20T04:36:08;0.55;;;0.40;;
5416;SDS011;2731;50.754;12.990;2023-12-20T04:38:37;1.10;;;0.80;;
5416;SDS011;2731;50.754;12.990;2023-12-20T04:41:22;0.80;;;0.60;;
5416;SDS011;2731;50.754;12.990;2023-12-20T04:44:07;1.30;;;1.05;;
5416;SDS011;2731;50.754;12.990;2023-12-20T04:46:54;0.50;;;0.50;;
5416;SDS011;2731;50.754;12.990;2023-12-20T04:49:41;0.68;;;0.68;;
5416;SDS011;2731;50.754;12.990;2023-12-20T04:52:26;1.92;;;0.80;;
5416;SDS011;2731;50.754;12.990;2023-12-20T04:55:10;0.82;;;0.80;;
5416;SDS011;2731;50.754;12.990;2023-12-20T04:57:55;0.80;;;0.80;;
5416;SDS011;2731;50.754;12.990;2023-12-20T05:00:40;1.90;;;0.70;;
5416;SDS011;2731;50.754;12.990;2023-12-20T05:03:26;0.70;;;0.70;;
5416;SDS011;2731;50.754;12.990;2023-12-20T05:06:11;1.00;;;0.90;;
5416;SDS011;2731;50.754;12.990;2023-12-20T05:08:55;2.25;;;0.70;;
5416;SDS011;2731;50.754;12.990;2023-12-20T05:11:40;0.85;;;0.85;;
5416;SDS011;2731;50.754;12.990;2023-12-20T05:14:25;1.05;;;0.73;;
5416;SDS011;2731;50.754;12.990;2023-12-20T05:17:11;0.65;;;0.50;;
5416;SDS011;2731;50.754;12.990;2023-12-20T05:19:55;0.65;;;0.60;;
5416;SDS011;2731;50.754;12.990;2023-12-20T05:22:40;0.60;;;0.60;;
5416;SDS011;2731;50.754;12.990;2023-12-20T05:25:25;1.35;;;0.80;;
5416;SDS011;2731;50.754;12.990;2023-12-20T05:28:10;1.35;;;0.77;;
5416;SDS011;2731;50.754;12.990;2023-12-20T05:30:56;1.13;;;0.70;;
5416;SDS011;2731;50.754;12.990;2023-12-20T05:33:43;1.73;;;0.73;;
5416;SDS011;2731;50.754;12.990;2023-12-20T05:36:28;0.55;;;0.52;;
5416;SDS011;2731;50.754;12.990;2023-12-20T05:38:55;0.70;;;0.50;;
5416;SDS011;2731;50.754;12.990;2023-12-20T05:41:40;1.05;;;0.50;;
5416;SDS011;2731;50.754;12.990;2023-12-20T05:44:25;0.52;;;0.52;;
5416;SDS011;2731;50.754;12.990;2023-12-20T05:47:10;0.68;;;0.68;;
5416;SDS011;2731;50.754;12.990;2023-12-20T05:49:54;0.50;;;0.50;;
5416;SDS011;2731;50.754;12.990;2023-12-20T05:52:39;0.68;;;0.45;;
5416;SDS011;2731;50.754;12.990;2023-12-20T05:55:06;0.85;;;0.73;;
5416;SDS011;2731;50.754;12.990;2023-12-20T05:57:51;1.15;;;0.80;;
5416;SDS011;2731;50.754;12.990;2023-12-20T06:00:36;0.68;;;0.40;;
5416;SDS011;2731;50.754;12.990;2023-12-20T06:03:20;0.80;;;0.75;;
5416;SDS011;2731;50.754;12.990;2023-12-20T06:06:08;0.82;;;0.68;;
5416;SDS011;2731;50.754;12.990;2023-12-20T06:08:53;0.88;;;0.82;;
5416;SDS011;2731;50.754;12.990;2023-12-20T06:11:19;1.20;;;0.98;;
5416;SDS011;2731;50.754;12.990;2023-12-20T06:14:06;1.00;;;0.90;;
5416;SDS011;2731;50.754;12.990;2023-12-20T06:16:55;2.10;;;1.20;;
5416;SDS011;2731;50.754;12.990;2023-12-20T06:19:40;1.83;;;1.20;;
5416;SDS011;2731;50.754;12.990;2023-12-20T06:22:27;2.13;;;1.67;;
5416;SDS011;2731;50.754;12.990;2023-12-20T06:25:12;1.73;;;1.45;;
5416;SDS011;2731;50.754;12.990;2023-12-20T06:27:38;2.83;;;1.83;;
5416;SDS011;2731;50.754;12.990;2023-12-20T06:30:23;3.72;;;1.90;;
5416;SDS011;2731;50.754;12.990;2023-12-20T06:33:09;2.20;;;2.00;;
5416;SDS011;2731;50.754;12.990;2023-12-20T06:35:55;2.45;;;1.83;;
5416;SDS011;2731;50.754;12.990;2023-12-20T06:38:40;4.07;;;2.28;;
5416;SDS011;2731;50.754;12.990;2023-12-20T06:41:26;1.83;;;1.67;;
5416;SDS011;2731;50.754;12.990;2023-12-20T06:44:10;2.50;;;2.13;;
5416;SDS011;2731;50.754;12.990;2023-12-20T06:46:38;2.60;;;2.20;;
5416;SDS011;2731;50.754;12.990;2023-12-20T06:49:23;2.35;;;2.13;;
5416;SDS011;2731;50.754;12.990;2023-12-20T06:52:08;4.00;;;2.67;;
5416;SDS011;2731;50.754;12.990;2023-12-20T06:54:53;3.10;;;2.03;;
5416;SDS011;2731;50.754;12.990;2023-12-20T06:57:37;5.03;;;1.63;;
5416;SDS011;2731;50.754;12.990;2023-12-20T07:00:22;2.05;;;1.80;;
5416;SDS011;2731;50.754;12.990;2023-12-20T07:03:09;3.08;;;1.80;;
5416;SDS011;2731;50.754;12.990;2023-12-20T07:05:55;2.95;;;1.90;;
5416;SDS011;2731;50.754;12.990;2023-12-20T07:08:40;3.13;;;1.83;;
5416;SDS011;2731;50.754;12.990;2023-12-20T07:11:24;3.97;;;2.75;;
5416;SDS011;2731;50.754;12.990;2023-12-20T07:14:09;3.75;;;2.45;;
5416;SDS011;2731;50.754;12.990;2023-12-20T07:16:54;8.98;;;5.78;;
5416;SDS011;2731;50.754;12.990;2023-12-20T07:19:39;4.85;;;2.47;;
5416;SDS011;2731;50.754;12.990;2023-12-20T07:22:24;13.63;;;9.43;;
5416;SDS011;2731;50.754;12.990;2023-12-20T07:25:09;3.40;;;2.85;;
5416;SDS011;2731;50.754;12.990;2023-12-20T07:27:54;4.13;;;2.45;;
5416;SDS011;2731;50.754;12.990;2023-12-20T07:30:39;2.70;;;1.80;;
5416;SDS011;2731;50.754;12.990;2023-12-20T07:33:24;3.28;;;2.15;;
5416;SDS011;2731;50.754;12.990;2023-12-20T07:36:09;2.60;;;1.90;;
5416;SDS011;2731;50.754;12.990;2023-12-20T07:38:53;3.85;;;2.40;;
5416;SDS011;2731;50.754;12.990;2023-12-20T07:41:26;3.85;;;2.28;;
5416;SDS011;2731;50.754;12.990;2023-12-20T07:44:12;2.80;;;1.95;;
5416;SDS011;2731;50.754;12.990;2023-12-20T07:46:38;4.18;;;2.15;;
5416;SDS011;2731;50.754;12.990;2023-12-20T07:49:22;4.82;;;2.42;;
5416;SDS011;2731;50.754;12.990;2023-12-20T07:52:07;3.20;;;2.03;;
5416;SDS011;2731;50.754;12.990;2023-12-20T07:54:52;2.95;;;1.38;;
5416;SDS011;2731;50.754;12.990;2023-12-20T07:57:37;3.97;;;2.08;;
5416;SDS011;2731;50.754;12.990;2023-12-20T08:00:22;2.92;;;1.80;;
5416;SDS011;2731;50.754;12.990;2023-12-20T08:02:48;3.97;;;1.50;;
5416;SDS011;2731;50.754;12.990;2023-12-20T08:05:14;2.90;;;1.60;;
5416;SDS011;2731;50.754;12.990;2023-12-20T08:07:59;4.10;;;1.70;;
5416;SDS011;2731;50.754;12.990;2023-12-20T08:10:44;4.20;;;1.85;;
5416;SDS011;2731;50.754;12.990;2023-12-20T08:13:29;3.22;;;1.95;;
5416;SDS011;2731;50.754;12.990;2023-12-20T08:16:13;4.63;;;2.03;;
5416;SDS011;2731;50.754;12.990;2023-12-20T08:19:01;2.85;;;2.00;;
5416;SDS011;2731;50.754;12.990;2023-12-20T08:21:46;9.23;;;2.60;;
5416;SDS011;2731;50.754;12.990;2023-12-20T08:24:12;3.28;;;1.60;;
5416;SDS011;2731;50.754;12.990;2023-12-20T08:26:56;5.57;;;2.20;;
5416;SDS011;2731;50.754;12.990;2023-12-20T08:29:43;3.28;;;2.00;;
5416;SDS011;2731;50.754;12.990;2023-12-20T08:32:30;2.97;;;1.88;;
5416;SDS011;2731;50.754;12.990;2023-12-20T08:34:57;2.92;;;1.88;;
5416;SDS011;2731;50.754;12.990;2023-12-20T08:37:43;4.15;;;1.85;;
5416;SDS011;2731;50.754;12.990;2023-12-20T08:40:31;4.28;;;1.73;;
5416;SDS011;2731;50.754;12.990;2023-12-20T08:42:57;3.03;;;1.63;;
5416;SDS011;2731;50.754;12.990;2023-12-20T08:45:42;2.30;;;1.70;;
5416;SDS011;2731;50.754;12.990;2023-12-20T08:48:28;5.47;;;3.55;;
5416;SDS011;2731;50.754;12.990;2023-12-20T08:51:12;3.88;;;1.73;;
5416;SDS011;2731;50.754;12.990;2023-12-20T08:53:57;2.80;;;1.92;;
5416;SDS011;2731;50.754;12.990;2023-12-20T08:56:42;2.90;;;2.03;;
5416;SDS011;2731;50.754;12.990;2023-12-20T08:59:27;3.83;;;1.77;;
5416;SDS011;2731;50.754;12.990;2023-12-20T09:01:56;2.03;;;1.35;;
5416;SDS011;2731;50.754;12.990;2023-12-20T09:04:23;4.38;;;1.67;;
5416;SDS011;2731;50.754;12.990;2023-12-20T09:07:24;2.33;;;1.38;;
5416;SDS011;2731;50.754;12.990;2023-12-20T09:10:09;2.25;;;1.25;;
5416;SDS011;2731;50.754;12.990;2023-12-20T09:12:53;1.83;;;1.40;;
5416;SDS011;2731;50.754;12.990;2023-12-20T09:15:42;1.63;;;1.10;;
5416;SDS011;2731;50.754;12.990;2023-12-20T09:18:28;2.45;;;1.10;;
5416;SDS011;2731;50.754;12.990;2023-12-20T09:21:12;2.95;;;1.77;;
5416;SDS011;2731;50.754;12.990;2023-12-20T09:23:40;2.95;;;1.73;;
5416;SDS011;2731;50.754;12.990;2023-12-20T09:26:25;5.18;;;1.58;;
5416;SDS011;2731;50.754;12.990;2023-12-20T09:29:09;3.97;;;2.10;;
5416;SDS011;2731;50.754;12.990;2023-12-20T09:31:58;4.22;;;2.22;;
5416;SDS011;2731;50.754;12.990;2023-12-20T09:34:43;5.13;;;2.20;;
5416;SDS011;2731;50.754;12.990;2023-12-20T09:37:28;7.30;;;2.42;;
5416;SDS011;2731;50.754;12.990;2023-12-20T09:40:13;4.28;;;2.40;;
5416;SDS011;2731;50.754;12.990;2023-12-20T09:42:58;10.45;;;2.95;;
5416;SDS011;2731;50.754;12.990;2023-12-20T09:45:28;7.00;;;2.70;;
5416;SDS011;2731;50.754;12.990;2023-12-20T09:47:56;8.70;;;2.90;;
5416;SDS011;2731;50.754;12.990;2023-12-20T09:50:23;2.80;;;2.00;;
5416;SDS011;2731;50.754;12.990;2023-12-20T09:52:51;4.32;;;2.38;;
5416;SDS011;2731;50.754;12.990;2023-12-20T09:55:18;8.10;;;2.97;;
5416;SDS011;2731;50.754;12.990;2023-12-20T09:57:45;11.80;;;3.10;;
5416;SDS011;2731;50.754;12.990;2023-12-20T10:00:12;5.70;;;2.88;;
5416;SDS011;2731;50.754;12.990;2023-12-20T10:02:38;5.68;;;2.33;;
5416;SDS011;2731;50.754;12.990;2023-12-20T10:05:07;3.15;;;2.35;;
5416;SDS011;2731;50.754;12.990;2023-12-20T10:07:34;3.67;;;2.20;;
5416;SDS011;2731;50.754;12.990;2023-12-20T10:10:01;3.15;;;2.03;;
5416;SDS011;2731;50.754;12.990;2023-12-20T10:12:27;4.68;;;2.17;;
5416;SDS011;2731;50.754;12.990;2023-12-20T10:14:53;3.55;;;2.15;;
5416;SDS011;2731;50.754;12.990;2023-12-20T10:17:20;5.50;;;2.60;;
5416;SDS011;2731;50.754;12.990;2023-12-20T10:19:47;4.80;;;2.40;;
5416;SDS011;2731;50.754;12.990;2023-12-20T10:22:13;4.82;;;2.40;;
5416;SDS011;2731;50.754;12.990;2023-12-20T10:24:41;2.80;;;2.15;;
5416;SDS011;2731;50.754;12.990;2023-12-20T10:27:07;4.95;;;2.22;;
5416;SDS011;2731;50.754;12.990;2023-12-20T10:29:34;3.50;;;2.47;;
5416;SDS011;2731;50.754;12.990;2023-12-20T10:32:02;2.50;;;1.77;;
5416;SDS011;2731;50.754;12.990;2023-12-20T10:34:46;4.72;;;2.20;;
5416;SDS011;2731;50.754;12.990;2023-12-20T10:37:12;2.75;;;1.73;;
5416;SDS011;2731;50.754;12.990;2023-12-20T10:39:42;3.50;;;1.92;;
5416;SDS011;2731;50.754;12.990;2023-12-20T10:42:12;5.45;;;2.60;;
5416;SDS011;2731;50.754;12.990;2023-12-20T10:44:38;6.00;;;2.58;;
5416;SDS011;2731;50.754;12.990;2023-12-20T10:47:26;3.42;;;1.73;;
5416;SDS011;2731;50.754;12.990;2023-12-20T10:49:55;3.63;;;2.60;;
5416;SDS011;2731;50.754;12.990;2023-12-20T10:52:41;4.60;;;2.17;;
5416;SDS011;2731;50.754;12.990;2023-12-20T10:55:27;4.70;;;2.90;;
5416;SDS011;2731;50.754;12.990;2023-12-20T10:58:12;2.00;;;1.80;;
5416;SDS011;2731;50.754;12.990;2023-12-20T11:00:59;3.63;;;2.20;;
5416;SDS011;2731;50.754;12.990;2023-12-20T11:03:50;4.88;;;2.20;;
5416;SDS011;2731;50.754;12.990;2023-12-20T11:06:37;3.22;;;1.60;;
5416;SDS011;2731;50.754;12.990;2023-12-20T11:09:25;3.13;;;2.15;;
5416;SDS011;2731;50.754;12.990;2023-12-20T11:12:16;5.53;;;2.50;;
5416;SDS011;2731;50.754;12.990;2023-12-20T11:15:02;6.38;;;2.15;;
5416;SDS011;2731;50.754;12.990;2023-12-20T11:17:29;7.28;;;2.10;;
5416;SDS011;2731;50.754;12.990;2023-12-20T11:20:14;11.10;;;2.22;;
5416;SDS011;2731;50.754;12.990;2023-12-20T11:22:59;5.43;;;2.63;;
5416;SDS011;2731;50.754;12.990;2023-12-20T11:25:54;4.05;;;2.00;;
5416;SDS011;2731;50.754;12.990;2023-12-20T11:28:39;5.90;;;1.90;;
5416;SDS011;2731;50.754;12.990;2023-12-20T11:31:23;8.20;;;1.52;;
5416;SDS011;2731;50.754;12.990;2023-12-20T11:34:13;4.03;;;1.75;;
5416;SDS011;2731;50.754;12.990;2023-12-20T11:37:02;4.53;;;1.75;;
5416;SDS011;2731;50.754;12.990;2023-12-20T11:39:56;4.90;;;1.80;;
5416;SDS011;2731;50.754;12.990;2023-12-20T11:42:42;3.95;;;1.70;;
5416;SDS011;2731;50.754;12.990;2023-12-20T11:45:27;3.13;;;1.35;;
5416;SDS011;2731;50.754;12.990;2023-12-20T11:48:12;3.20;;;1.70;;
5416;SDS011;2731;50.754;12.990;2023-12-20T11:50:58;6.20;;;2.17;;
5416;SDS011;2731;50.754;12.990;2023-12-20T11:53:27;3.13;;;1.67;;
5416;SDS011;2731;50.754;12.990;2023-12-20T11:56:12;8.25;;;1.80;;
5416;SDS011;2731;50.754;12.990;2023-12-20T11:58:57;3.50;;;1.35;;
5416;SDS011;2731;50.754;12.990;2023-12-20T12:01:47;5.68;;;2.00;;
5416;SDS011;2731;50.754;12.990;2023-12-20T12:04:14;3.35;;;1.60;;
5416;SDS011;2731;50.754;12.990;2023-12-20T12:07:01;4.07;;;1.73;;
5416;SDS011;2731;50.754;12.990;2023-12-20T12:09:27;3.50;;;1.73;;
5416;SDS011;2731;50.754;12.990;2023-12-20T12:11:53;4.50;;;1.80;;
5416;SDS011;2731;50.754;12.990;2023-12-20T12:14:38;6.60;;;2.20;;
5416;SDS011;2731;50.754;12.990;2023-12-20T12:17:09;5.30;;;1.50;;
5416;SDS011;2731;50.754;12.990;2023-12-20T12:19:36;4.70;;;1.95;;
5416;SDS011;2731;50.754;12.990;2023-12-20T12:22:22;5.05;;;1.98;;
5416;SDS011;2731;50.754;12.990;2023-12-20T12:25:11;6.50;;;2.40;;
5416;SDS011;2731;50.754;12.990;2023-12-20T12:27:38;5.20;;;1.80;;
5416;SDS011;2731;50.754;12.990;2023-12-20T12:30:24;4.15;;;1.45;;
5416;SDS011;2731;50.754;12.990;2023-12-20T12:33:09;6.10;;;2.03;;
5416;SDS011;2731;50.754;12.990;2023-12-20T12:35:54;4.55;;;2.22;;
5416;SDS011;2731;50.754;12.990;2023-12-20T12:38:39;4.68;;;1.75;;
5416;SDS011;2731;50.754;12.990;2023-12-20T12:41:25;8.13;;;1.70;;
5416;SDS011;2731;50.754;12.990;2023-12-20T12:43:51;5.35;;;1.63;;
5416;SDS011;2731;50.754;12.990;2023-12-20T12:46:17;2.78;;;1.67;;
5416;SDS011;2731;50.754;12.990;2023-12-20T12:49:02;4.03;;;2.78;;
5416;SDS011;2731;50.754;12.990;2023-12-20T12:51:48;3.42;;;1.70;;
5416;SDS011;2731;50.754;12.990;2023-12-20T12:54:32;5.20;;;1.83;;
5416;SDS011;2731;50.754;12.990;2023-12-20T12:57:20;4.63;;;1.48;;
5416;SDS011;2731;50.754;12.990;2023-12-20T13:00:05;4.20;;;1.52;;
5416;SDS011;2731;50.754;12.990;2023-12-20T13:02:52;3.55;;;1.45;;
5416;SDS011;2731;50.754;12.990;2023-12-20T13:05:37;5.13;;;1.85;;
5416;SDS011;2731;50.754;12.990;2023-12-20T13:08:22;3.33;;;1.52;;
5416;SDS011;2731;50.754;12.990;2023-12-20T13:11:07;4.07;;;1.90;;
5416;SDS011;2731;50.754;12.990;2023-12-20T13:13:51;6.50;;;2.13;;
5416;SDS011;2731;50.754;12.990;2023-12-20T13:16:36;4.53;;;2.13;;
5416;SDS011;2731;50.754;12.990;2023-12-20T13:19:20;4.90;;;2.00;;
5416;SDS011;2731;50.754;12.990;2023-12-20T13:22:05;9.35;;;1.95;;
5416;SDS011;2731;50.754;12.990;2023-12-20T13:24:50;2.75;;;1.35;;
5416;SDS011;2731;50.754;12.990;2023-12-20T13:27:34;4.85;;;1.40;;
5416;SDS011;2731;50.754;12.990;2023-12-20T13:30:19;4.55;;;1.90;;
5416;SDS011;2731;50.754;12.990;2023-12-20T13:33:04;4.55;;;1.63;;
5416;SDS011;2731;50.754;12.990;2023-12-20T13:35:49;5.97;;;1.52;;
5416;SDS011;2731;50.754;12.990;2023-12-20T13:38:35;3.72;;;1.65;;
5416;SDS011;2731;50.754;12.990;2023-12-20T13:41:19;3.95;;;1.58;;
5416;SDS011;2731;50.754;12.990;2023-12-20T13:44:04;3.05;;;1.50;;
5416;SDS011;2731;50.754;12.990;2023-12-20T13:46:49;3.67;;;1.40;;
5416;SDS011;2731;50.754;12.990;2023-12-20T13:49:34;3.42;;;1.50;;
5416;SDS011;2731;50.754;12.990;2023-12-20T13:52:18;2.75;;;1.23;;
5416;SDS011;2731;50.754;12.990;2023-12-20T13:54:45;3.72;;;1.20;;
5416;SDS011;2731;50.754;12.990;2023-12-20T13:57:29;2.78;;;1.73;;
5416;SDS011;2731;50.754;12.990;2023-12-20T14:00:14;2.55;;;1.08;;
5416;SDS011;2731;50.754;12.990;2023-12-20T14:02:59;2.05;;;1.25;;
5416;SDS011;2731;50.754;12.990;2023-12-20T14:05:45;2.13;;;1.40;;
5416;SDS011;2731;50.754;12.990;2023-12-20T14:08:30;3.50;;;1.70;;
5416;SDS011;2731;50.754;12.990;2023-12-20T14:11:14;4.82;;;1.85;;
5416;SDS011;2731;50.754;12.990;2023-12-20T14:13:40;6.60;;;1.73;;
5416;SDS011;2731;50.754;12.990;2023-12-20T14:16:25;4.57;;;1.27;;
5416;SDS011;2731;50.754;12.990;2023-12-20T14:19:10;4.60;;;1.25;;
5416;SDS011;2731;50.754;12.990;2023-12-20T14:21:55;2.72;;;1.30;;
5416;SDS011;2731;50.754;12.990;2023-12-20T14:24:40;2.53;;;1.25;;
5416;SDS011;2731;50.754;12.990;2023-12-20T14:27:24;2.28;;;1.20;;
5416;SDS011;2731;50.754;12.990;2023-12-20T14:29:53;2.33;;;1.25;;
5416;SDS011;2731;50.754;12.990;2023-12-20T14:32:38;1.75;;;1.23;;
5416;SDS011;2731;50.754;12.990;2023-12-20T14:35:23;1.75;;;1.27;;
5416;SDS011;2731;50.754;12.990;2023-12-20T14:38:08;3.97;;;1.40;;
5416;SDS011;2731;50.754;12.990;2023-12-20T14:40:54;3.20;;;1.70;;
5416;SDS011;2731;50.754;12.990;2023-12-20T14:43:39;5.70;;;1.85;;
5416;SDS011;2731;50.754;12.990;2023-12-20T14:46:24;3.65;;;1.48;;
5416;SDS011;2731;50.754;12.990;2023-12-20T14:48:50;4.22;;;1.55;;
5416;SDS011;2731;50.754;12.990;2023-12-20T14:51:16;2.50;;;1.38;;
5416;SDS011;2731;50.754;12.990;2023-12-20T14:54:01;6.63;;;1.63;;
5416;SDS011;2731;50.754;12.990;2023-12-20T14:56:45;4.78;;;1.92;;
5416;SDS011;2731;50.754;12.990;2023-12-20T14:59:12;3.65;;;1.75;;
5416;SDS011;2731;50.754;12.990;2023-12-20T15:01:56;3.38;;;1.55;;
5416;SDS011;2731;50.754;12.990;2023-12-20T15:04:22;4.22;;;1.75;;
5416;SDS011;2731;50.754;12.990;2023-12-20T15:06:53;5.05;;;1.92;;
5416;SDS011;2731;50.754;12.990;2023-12-20T15:09:39;3.85;;;1.77;;
5416;SDS011;2731;50.754;12.990;2023-12-20T15:12:29;2.85;;;1.17;;
5416;SDS011;2731;50.754;12.990;2023-12-20T15:15:14;4.53;;;1.42;;
5416;SDS011;2731;50.754;12.990;2023-12-20T15:18:00;3.58;;;1.48;;
5416;SDS011;2731;50.754;12.990;2023-12-20T15:20:48;3.50;;;1.23;;
5416;SDS011;2731;50.754;12.990;2023-12-20T15:23:15;4.35;;;1.30;;
5416;SDS011;2731;50.754;12.990;2023-12-20T15:26:00;4.35;;;1.27;;
5416;SDS011;2731;50.754;12.990;2023-12-20T15:28:45;4.93;;;0.95;;
5416;SDS011;2731;50.754;12.990;2023-12-20T15:31:31;1.70;;;1.15;;
5416;SDS011;2731;50.754;12.990;2023-12-20T15:34:16;1.15;;;0.85;;
5416;SDS011;2731;50.754;12.990;2023-12-20T15:37:01;3.85;;;1.42;;
5416;SDS011;2731;50.754;12.990;2023-12-20T15:39:46;5.43;;;1.35;;
5416;SDS011;2731;50.754;12.990;2023-12-20T15:42:31;4.40;;;1.42;;
5416;SDS011;2731;50.754;12.990;2023-12-20T15:45:01;4.43;;;1.30;;
5416;SDS011;2731;50.754;12.990;2023-12-20T15:47:47;4.15;;;1.58;;
5416;SDS011;2731;50.754;12.990;2023-12-20T15:50:13;4.00;;;1.55;;
5416;SDS011;2731;50.754;12.990;2023-12-20T15:52:58;9.35;;;2.15;;
5416;SDS011;2731;50.754;12.990;2023-12-20T15:55:29;2.08;;;1.17;;
5416;SDS011;2731;50.754;12.990;2023-12-20T15:57:59;2.85;;;1.52;;
5416;SDS011;2731;50.754;12.990;2023-12-20T16:00:25;2.55;;;1.67;;
5416;SDS011;2731;50.754;12.990;2023-12-20T16:02:51;2.35;;;1.23;;
5416;SDS011;2731;50.754;12.990;2023-12-20T16:05:18;3.72;;;1.40;;
5416;SDS011;2731;50.754;12.990;2023-12-20T16:07:45;6.25;;;1.38;;
5416;SDS011;2731;50.754;12.990;2023-12-20T16:10:11;2.65;;;1.77;;
5416;SDS011;2731;50.754;12.990;2023-12-20T16:12:38;4.22;;;1.38;;
5416;SDS011;2731;50.754;12.990;2023-12-20T16:15:05;2.95;;;1.33;;
5416;SDS011;2731;50.754;12.990;2023-12-20T16:17:33;4.03;;;1.55;;
5416;SDS011;2731;50.754;12.990;2023-12-20T16:20:02;3.65;;;1.40;;
5416;SDS011;2731;50.754;12.990;2023-12-20T16:22:28;3.25;;;1.30;;